Main page
METAR-TAF:

METAR-TAF

Airports :

Gloucester, England

Gloucestershire Airport

latitude: 51-54N, longitude: 002-10W, elevation: 29 m

Current weather observation

The report was made 4 hours and 29 minutes ago, at 17:50 UTC
Wind 4 kt from the North/Northeast
Temperature 10°C
Humidity 82%
Pressure 1020 hPa
Visibility: 8000 m

METAR: EGBJ 271750Z 02004KT 8000 NSC 10/07 Q1020

Time: 23:19 (22:19 UTC)

Forecast

The report was made 8 hours and 21 minutes ago, at 13:58 UTC
Forecast valid from 27 at 15 UTC to 27 at 19 UTC
Wind 8 kt from the East/Northeast
Visibility: 9000 m
Few clouds at a height of 4500 ft
Temporary
from 27 at 15 UTC to 27 at 19 UTC
Visibility 10 km or more

TAF: EGBJ 271358Z 2715/2719 06008KT 9000 FEW045 TEMPO 2715/2719 9999

Weather observations and forecasts of more than 4000 airports (METAR and TAF reports).

The available stations are represented by yellow and red dots on the map.

Hover mouse over dot to see the name of the station.

Then click to see weather observations and forecasts.

To change the map : click on the green buttons with a black cross to zoom in, on the green button with a dash to zoom out, or on the green arrows for adjacent maps.


METAR-TAF: